Time;durP1;ratioP1;P1;durP2;ratioP2;P2;SDS_P1;SDS_P2;PMS_P1;PMS_P2;Temp;Humidity;BMP_temperature;BMP_pressure;BME280_temperature;BME280_humidity;BME280_pressure;Samples;Min_cycle;Max_cycle;Signal;HPM_P1;HPM_P2
2023/10/20 00:01:51;;;;;;;14.23;3.03;;;;;;;;;;5004957;28;20480;-69
2023/10/20 00:04:17;;;;;;;12.40;2.67;;;;;;;;;;5004353;28;20021;-68
2023/10/20 00:06:44;;;;;;;15.57;2.28;;;;;;;;;;5023189;28;20458;-69
2023/10/20 00:09:14;;;;;;;14.75;2.40;;;;;;;;;;5020934;28;20025;-69
2023/10/20 00:11:41;;;;;;;11.90;2.05;;;;;;;;;;5022427;28;20055;-69
2023/10/20 00:14:08;;;;;;;11.25;1.83;;;;;;;;;;5026829;28;20100;-69
2023/10/20 00:16:34;;;;;;;10.02;1.40;;;;;;;;;;5021276;28;20029;-68
2023/10/20 00:19:03;;;;;;;6.72;1.20;;;;;;;;;;5004742;28;20288;-69
2023/10/20 00:21:29;;;;;;;8.48;1.30;;;;;;;;;;5020157;28;20055;-69
2023/10/20 00:23:55;;;;;;;9.68;1.30;;;;;;;;;;5024818;28;20059;-68
2023/10/20 00:26:22;;;;;;;7.25;1.02;;;;;;;;;;5003523;28;20127;-69
2023/10/20 00:28:48;;;;;;;7.05;1.00;;;;;;;;;;5006580;28;20406;-68
2023/10/20 00:31:16;;;;;;;8.73;1.00;;;;;;;;;;5021733;28;20108;-67
2023/10/20 00:33:43;;;;;;;7.47;1.27;;;;;;;;;;5003819;28;20032;-68
2023/10/20 00:36:09;;;;;;;7.43;1.20;;;;;;;;;;5030124;28;20363;-67
2023/10/20 00:38:35;;;;;;;8.55;1.38;;;;;;;;;;5025147;28;20029;-68
2023/10/20 00:41:01;;;;;;;6.45;1.20;;;;;;;;;;5005399;28;20293;-68
2023/10/20 00:43:37;;;;;;;6.80;1.33;;;;;;;;;;5022215;28;20036;-67
2023/10/20 00:46:08;;;;;;;8.40;1.33;;;;;;;;;;5008687;28;20028;-67
2023/10/20 00:48:35;;;;;;;7.55;1.42;;;;;;;;;;5020049;28;20094;-67
2023/10/20 00:51:02;;;;;;;12.52;1.40;;;;;;;;;;5006693;28;20053;-68
2023/10/20 00:53:29;;;;;;;6.90;1.35;;;;;;;;;;5024039;28;20044;-67
2023/10/20 00:55:58;;;;;;;11.23;1.40;;;;;;;;;;5026073;28;20032;-68
2023/10/20 00:58:27;;;;;;;9.73;1.45;;;;;;;;;;5023884;28;20692;-67
2023/10/20 01:00:53;;;;;;;8.50;1.27;;;;;;;;;;5023398;28;20586;-68
2023/10/20 01:03:20;;;;;;;7.43;1.48;;;;;;;;;;5023532;28;20151;-67
2023/10/20 01:05:46;;;;;;;10.77;1.52;;;;;;;;;;5023326;28;20041;-67
2023/10/20 01:08:13;;;;;;;6.50;1.20;;;;;;;;;;5020576;28;20375;-67
2023/10/20 01:10:39;;;;;;;7.50;1.40;;;;;;;;;;5009064;28;20090;-67
2023/10/20 01:13:06;;;;;;;10.95;1.80;;;;;;;;;;5008988;28;20469;-67
2023/10/20 01:15:32;;;;;;;12.85;1.80;;;;;;;;;;5002023;28;20278;-67
2023/10/20 01:17:59;;;;;;;9.02;1.55;;;;;;;;;;5027823;28;20112;-70
2023/10/20 01:20:25;;;;;;;8.80;1.23;;;;;;;;;;5017922;28;20071;-67
2023/10/20 01:22:51;;;;;;;9.07;1.55;;;;;;;;;;5019741;28;20029;-67
2023/10/20 01:25:17;;;;;;;11.60;1.70;;;;;;;;;;4996661;28;20491;-67
2023/10/20 01:27:43;;;;;;;9.45;1.48;;;;;;;;;;5015259;28;20441;-66
2023/10/20 01:30:13;;;;;;;13.65;1.92;;;;;;;;;;5002895;28;20313;-67
2023/10/20 01:32:41;;;;;;;11.93;1.73;;;;;;;;;;5004861;28;20030;-68
2023/10/20 01:35:07;;;;;;;12.38;2.08;;;;;;;;;;5001215;28;20030;-68
2023/10/20 01:37:34;;;;;;;10.80;1.80;;;;;;;;;;5000250;28;20500;-68
2023/10/20 01:40:00;;;;;;;12.35;1.88;;;;;;;;;;5002722;28;20037;-68
2023/10/20 01:42:26;;;;;;;9.88;1.80;;;;;;;;;;5000470;28;20471;-68
2023/10/20 01:44:52;;;;;;;10.27;1.75;;;;;;;;;;5001696;28;20029;-69
2023/10/20 01:47:18;;;;;;;12.35;1.83;;;;;;;;;;5004136;28;20025;-68
2023/10/20 01:49:44;;;;;;;11.18;2.00;;;;;;;;;;4999358;28;20044;-68
2023/10/20 01:52:11;;;;;;;12.70;1.67;;;;;;;;;;5002909;28;20037;-68
2023/10/20 01:54:37;;;;;;;10.70;1.58;;;;;;;;;;4998950;28;20568;-68
2023/10/20 01:57:03;;;;;;;11.82;1.85;;;;;;;;;;5004893;28;20048;-68
2023/10/20 01:59:30;;;;;;;11.27;1.80;;;;;;;;;;4997056;28;20037;-68
2023/10/20 02:01:56;;;;;;;12.82;1.92;;;;;;;;;;5001529;28;20296;-67
2023/10/20 02:04:22;;;;;;;10.98;1.98;;;;;;;;;;4998414;28;20119;-68
2023/10/20 02:06:48;;;;;;;9.52;1.30;;;;;;;;;;5006255;28;20336;-67
2023/10/20 02:09:14;;;;;;;11.80;1.55;;;;;;;;;;5001983;28;20033;-67
2023/10/20 02:11:41;;;;;;;9.55;1.52;;;;;;;;;;5005761;28;20870;-67
2023/10/20 02:14:08;;;;;;;8.52;1.40;;;;;;;;;;5004737;28;20026;-67
2023/10/20 02:16:34;;;;;;;12.02;1.67;;;;;;;;;;4998677;28;20033;-67
2023/10/20 02:19:00;;;;;;;6.82;1.08;;;;;;;;;;5007187;28;20834;-67
2023/10/20 02:21:26;;;;;;;10.80;1.25;;;;;;;;;;5000832;28;20029;-67
2023/10/20 02:23:52;;;;;;;8.43;1.35;;;;;;;;;;4999054;28;20037;-67
2023/10/20 02:26:19;;;;;;;7.55;1.20;;;;;;;;;;4996755;28;20040;-66
2023/10/20 02:28:45;;;;;;;9.20;1.52;;;;;;;;;;5001025;28;20034;-66
2023/10/20 02:31:17;;;;;;;10.40;1.08;;;;;;;;;;4999437;28;20094;-67
2023/10/20 02:33:44;;;;;;;7.00;1.10;;;;;;;;;;5002911;28;20052;-67
2023/10/20 02:36:15;;;;;;;7.95;1.15;;;;;;;;;;5004801;28;20835;-67
2023/10/20 02:38:41;;;;;;;5.75;0.90;;;;;;;;;;5006864;28;20057;-67
2023/10/20 02:41:07;;;;;;;10.20;1.30;;;;;;;;;;5000201;28;20066;-67
2023/10/20 02:43:33;;;;;;;7.90;1.40;;;;;;;;;;5003557;28;21171;-67
2023/10/20 02:45:59;;;;;;;8.32;1.27;;;;;;;;;;5000948;28;20074;-67
2023/10/20 02:48:27;;;;;;;8.38;1.17;;;;;;;;;;4999607;28;20017;-66
2023/10/20 02:50:53;;;;;;;7.00;1.10;;;;;;;;;;4998738;28;20027;-66
2023/10/20 02:53:19;;;;;;;8.35;1.45;;;;;;;;;;5000649;28;20039;-66
2023/10/20 02:55:46;;;;;;;9.60;1.65;;;;;;;;;;5000778;28;20723;-67
2023/10/20 02:58:12;;;;;;;10.43;1.58;;;;;;;;;;5001240;28;20041;-66
2023/10/20 03:00:45;;;;;;;9.45;1.40;;;;;;;;;;5002003;28;20108;-66
2023/10/20 03:03:13;;;;;;;11.70;1.60;;;;;;;;;;4999696;28;20397;-67
2023/10/20 03:05:41;;;;;;;10.93;1.77;;;;;;;;;;5001676;28;20063;-67
2023/10/20 03:08:08;;;;;;;10.73;1.50;;;;;;;;;;4999795;28;20707;-67
2023/10/20 03:10:35;;;;;;;11.18;1.65;;;;;;;;;;4999962;28;20033;-67
2023/10/20 03:13:01;;;;;;;9.48;1.50;;;;;;;;;;5000857;28;20060;-67
2023/10/20 03:15:27;;;;;;;12.02;1.90;;;;;;;;;;5000730;28;20388;-67
2023/10/20 03:17:53;;;;;;;;;;;;;;;;;;5002784;28;20038;-67
2023/10/20 03:20:24;;;;;;;9.02;1.90;;;;;;;;;;4997807;28;20022;-67
2023/10/20 03:22:52;;;;;;;11.23;1.98;;;;;;;;;;5005143;28;20037;-67
2023/10/20 03:25:18;;;;;;;13.25;2.15;;;;;;;;;;5024187;28;20035;-67
2023/10/20 03:27:44;;;;;;;10.98;2.00;;;;;;;;;;5009812;28;20095;-67
2023/10/20 03:30:11;;;;;;;8.60;1.70;;;;;;;;;;5027735;28;20061;-67
2023/10/20 03:32:36;;;;;;;;;;;;;;;;;;5032783;28;20090;-68
2023/10/20 03:35:03;;;;;;;11.43;1.92;;;;;;;;;;5030045;28;19979;-67
2023/10/20 03:37:29;;;;;;;10.77;1.90;;;;;;;;;;5027794;28;20550;-66
2023/10/20 03:39:55;;;;;;;;;;;;;;;;;;5031931;28;20028;-66
2023/10/20 03:42:21;;;;;;;13.02;2.05;;;;;;;;;;5022050;28;20679;-67
2023/10/20 03:44:48;;;;;;;10.48;2.25;;;;;;;;;;5009605;28;20327;-67
2023/10/20 03:47:16;;;;;;;13.60;2.38;;;;;;;;;;5027624;28;20357;-66
2023/10/20 03:49:43;;;;;;;13.68;2.30;;;;;;;;;;5030215;28;20025;-67
2023/10/20 03:52:12;;;;;;;;;;;;;;;;;;5012293;28;20033;-67
2023/10/20 03:54:41;;;;;;;12.23;2.22;;;;;;;;;;5010335;28;20545;-67
2023/10/20 03:57:07;;;;;;;11.13;2.40;;;;;;;;;;5028215;28;20033;-67
2023/10/20 03:59:34;;;;;;;;;;;;;;;;;;5026319;28;20029;-67
2023/10/20 04:02:01;;;;;;;17.30;2.38;;;;;;;;;;5027082;28;20372;-68
2023/10/20 04:04:28;;;;;;;16.17;2.55;;;;;;;;;;5029176;28;20336;-68
2023/10/20 04:06:54;;;;;;;13.27;2.15;;;;;;;;;;5032599;28;20701;-69
2023/10/20 04:09:20;;;;;;;14.27;3.03;;;;;;;;;;5006392;28;20735;-68
2023/10/20 04:11:46;;;;;;;;;;;;;;;;;;5029331;28;21127;-69
2023/10/20 04:14:12;;;;;;;14.60;4.63;;;;;;;;;;5028043;28;19912;-68
2023/10/20 04:16:41;;;;;;;;;;;;;;;;;;5027258;28;20033;-68
2023/10/20 04:19:12;;;;;;;18.58;5.47;;;;;;;;;;5027258;28;20322;-68
2023/10/20 04:21:43;;;;;;;12.45;3.05;;;;;;;;;;5025710;28;20029;-68
2023/10/20 04:24:12;;;;;;;12.05;2.60;;;;;;;;;;5025308;28;20276;-68
2023/10/20 04:26:41;;;;;;;10.43;1.90;;;;;;;;;;5022560;28;20046;-68
2023/10/20 05:04:14;;;;;;;9.23;1.73;;;;;;;;;;5026710;28;20044;-67
2023/10/20 05:06:43;;;;;;;9.05;1.55;;;;;;;;;;5023514;28;20433;-67
2023/10/20 05:09:13;;;;;;;10.65;1.63;;;;;;;;;;5029752;28;20021;-67
2023/10/20 05:11:39;;;;;;;10.80;1.75;;;;;;;;;;5026365;28;20292;-67
2023/10/20 05:14:05;;;;;;;12.93;1.70;;;;;;;;;;5026284;28;20515;-67
2023/10/20 05:16:34;;;;;;;12.05;1.63;;;;;;;;;;5021888;28;20083;-68
2023/10/20 05:19:03;;;;;;;9.43;1.70;;;;;;;;;;5023975;28;20055;-68
2023/10/20 05:21:29;;;;;;;11.45;2.38;;;;;;;;;;5022133;28;20398;-67
2023/10/20 05:23:55;;;;;;;13.02;2.10;;;;;;;;;;5027223;28;20630;-67
2023/10/20 05:26:23;;;;;;;8.25;1.60;;;;;;;;;;5021524;28;20017;-68
2023/10/20 05:28:50;;;;;;;11.75;1.67;;;;;;;;;;5009321;28;20041;-67
2023/10/20 05:31:16;;;;;;;12.13;1.80;;;;;;;;;;5026327;28;20028;-67
2023/10/20 05:33:42;;;;;;;;;;;;;;;;;;5004934;28;20037;-68
2023/10/20 05:36:08;;;;;;;9.90;1.90;;;;;;;;;;5021780;28;20125;-69
2023/10/20 05:38:35;;;;;;;13.07;2.10;;;;;;;;;;5023276;28;20056;-67
2023/10/20 05:41:01;;;;;;;13.15;1.92;;;;;;;;;;5008074;28;20462;-67
2023/10/20 05:43:27;;;;;;;14.63;1.98;;;;;;;;;;5025304;28;20067;-70
2023/10/20 05:45:54;;;;;;;14.45;2.35;;;;;;;;;;5026079;28;20067;-68
2023/10/20 05:48:20;;;;;;;14.07;2.33;;;;;;;;;;5019203;28;20036;-68
2023/10/20 05:50:46;;;;;;;15.27;2.35;;;;;;;;;;5026335;28;20483;-68
2023/10/20 05:53:12;;;;;;;16.13;2.25;;;;;;;;;;5001875;28;20037;-67
2023/10/20 05:55:38;;;;;;;12.75;2.15;;;;;;;;;;5021058;28;20391;-67
2023/10/20 05:58:06;;;;;;;10.43;1.77;;;;;;;;;;5021630;28;20041;-68
2023/10/20 06:00:32;;;;;;;10.32;1.88;;;;;;;;;;5001792;28;20025;-69
2023/10/20 06:02:58;;;;;;;;;;;;;;;;;;5005017;28;20028;-69
2023/10/20 06:05:24;;;;;;;12.65;2.17;;;;;;;;;;5016378;28;19912;-69
2023/10/20 06:07:50;;;;;;;10.05;1.77;;;;;;;;;;5021988;28;20317;-67
2023/10/20 06:10:22;;;;;;;9.88;2.00;;;;;;;;;;5000064;28;20036;-67
2023/10/20 06:12:48;;;;;;;13.15;2.28;;;;;;;;;;5004037;28;20563;-67
2023/10/20 06:15:15;;;;;;;15.95;2.30;;;;;;;;;;5017226;28;20032;-68
2023/10/20 06:17:42;;;;;;;17.85;2.30;;;;;;;;;;5022010;28;20462;-67
2023/10/20 06:20:09;;;;;;;11.10;1.70;;;;;;;;;;5002486;28;20048;-67
2023/10/20 06:22:35;;;;;;;14.20;2.38;;;;;;;;;;5021346;28;20619;-67
2023/10/20 06:25:10;;;;;;;10.18;1.85;;;;;;;;;;5004378;28;20049;-67
2023/10/20 06:27:36;;;;;;;9.75;1.70;;;;;;;;;;5020511;28;20143;-68
2023/10/20 06:30:06;;;;;;;14.98;1.92;;;;;;;;;;5020235;28;20043;-68
2023/10/20 06:32:42;;;;;;;10.60;1.88;;;;;;;;;;5017848;28;20075;-68
2023/10/20 06:35:09;;;;;;;11.43;2.00;;;;;;;;;;5001192;28;20033;-69
2023/10/20 06:37:41;;;;;;;10.95;1.92;;;;;;;;;;5016501;28;20106;-68
2023/10/20 06:40:07;;;;;;;8.65;1.50;;;;;;;;;;5004041;28;20738;-68
2023/10/20 06:42:34;;;;;;;10.02;1.63;;;;;;;;;;5016195;28;20464;-68
2023/10/20 06:45:04;;;;;;;10.85;2.03;;;;;;;;;;5000047;28;20021;-68
2023/10/20 06:47:31;;;;;;;12.82;1.70;;;;;;;;;;5015983;28;25049;-68
2023/10/20 06:49:57;;;;;;;13.05;2.30;;;;;;;;;;5019768;28;20024;-68
2023/10/20 06:52:23;;;;;;;11.73;2.00;;;;;;;;;;5016960;28;20029;-68
2023/10/20 06:54:49;;;;;;;11.48;1.73;;;;;;;;;;5020646;28;20033;-68
2023/10/20 06:57:16;;;;;;;10.02;1.70;;;;;;;;;;5016685;28;20108;-68
2023/10/20 06:59:42;;;;;;;12.23;2.38;;;;;;;;;;5020752;28;20048;-68
2023/10/20 07:02:09;;;;;;;11.20;2.17;;;;;;;;;;5018435;28;20418;-67
2023/10/20 07:04:35;;;;;;;11.27;1.83;;;;;;;;;;5018312;28;20044;-67
2023/10/20 07:07:01;;;;;;;15.20;2.17;;;;;;;;;;5020047;28;20028;-67
2023/10/20 07:09:27;;;;;;;10.20;2.08;;;;;;;;;;5018564;28;20573;-67
2023/10/20 07:11:54;;;;;;;11.65;1.70;;;;;;;;;;5000758;28;20021;-68
2023/10/20 07:14:19;;;;;;;;;;;;;;;;;;5018038;28;20258;-68
2023/10/20 07:16:46;;;;;;;10.10;1.88;;;;;;;;;;5006240;28;20355;-67
2023/10/20 07:19:12;;;;;;;15.13;2.47;;;;;;;;;;5019521;28;20268;-67
2023/10/20 07:21:38;;;;;;;;;;;;;;;;;;4997587;28;20024;-68
2023/10/20 07:24:04;;;;;;;13.15;2.40;;;;;;;;;;5005909;28;20562;-69
2023/10/20 07:26:30;;;;;;;10.63;2.10;;;;;;;;;;5023329;28;20029;-68
2023/10/20 07:28:57;;;;;;;9.75;2.20;;;;;;;;;;5023823;28;20051;-69
2023/10/20 07:31:23;;;;;;;12.00;2.30;;;;;;;;;;5018508;28;20030;-68
2023/10/20 07:33:51;;;;;;;;;;;;;;;;;;5022453;28;20065;-68
2023/10/20 07:36:18;;;;;;;13.35;2.35;;;;;;;;;;5018674;28;19916;-68
2023/10/20 07:38:44;;;;;;;13.98;2.55;;;;;;;;;;5020951;28;20329;-68
2023/10/20 07:41:12;;;;;;;10.63;2.55;;;;;;;;;;5021519;28;20040;-68
2023/10/20 07:43:41;;;;;;;12.43;2.58;;;;;;;;;;5023035;28;20029;-68
2023/10/20 07:46:14;;;;;;;13.93;2.53;;;;;;;;;;5019339;28;20530;-68
2023/10/20 07:48:40;;;;;;;10.63;2.20;;;;;;;;;;5005977;28;20506;-68
2023/10/20 07:51:06;;;;;;;11.98;1.90;;;;;;;;;;5023665;28;20499;-68
2023/10/20 07:53:33;;;;;;;11.52;2.05;;;;;;;;;;5018796;28;20147;-68
2023/10/20 07:55:59;;;;;;;12.15;1.90;;;;;;;;;;5005301;28;20115;-68
2023/10/20 07:58:25;;;;;;;15.55;2.10;;;;;;;;;;5017284;28;20032;-68
2023/10/20 08:00:51;;;;;;;10.40;1.75;;;;;;;;;;5023020;28;20051;-68
2023/10/20 08:03:17;;;;;;;9.05;2.10;;;;;;;;;;5019392;28;20037;-68
2023/10/20 08:05:43;;;;;;;13.32;2.15;;;;;;;;;;5023784;28;20087;-68
2023/10/20 08:08:09;;;;;;;9.80;1.90;;;;;;;;;;5021132;28;20550;-68
2023/10/20 08:10:36;;;;;;;9.40;1.98;;;;;;;;;;5022887;28;20021;-67
2023/10/20 08:13:03;;;;;;;11.38;2.38;;;;;;;;;;5024780;28;20595;-67
2023/10/20 08:15:29;;;;;;;10.60;2.20;;;;;;;;;;5020565;28;20451;-69
2023/10/20 08:17:56;;;;;;;8.88;1.80;;;;;;;;;;5022882;28;20152;-67
2023/10/20 08:20:22;;;;;;;11.43;2.10;;;;;;;;;;5023889;28;20032;-67
2023/10/20 08:22:48;;;;;;;11.07;2.40;;;;;;;;;;5022550;28;20371;-69
2023/10/20 08:25:15;;;;;;;10.85;1.73;;;;;;;;;;5021234;28;20049;-68
2023/10/20 08:27:41;;;;;;;11.52;1.90;;;;;;;;;;5024372;28;20132;-68
2023/10/20 08:30:08;;;;;;;9.20;1.73;;;;;;;;;;5020920;28;20478;-68
2023/10/20 08:32:34;;;;;;;12.38;2.00;;;;;;;;;;5023400;28;20040;-68
2023/10/20 08:35:00;;;;;;;10.18;2.08;;;;;;;;;;5021976;28;20048;-68
2023/10/20 08:37:28;;;;;;;10.27;1.95;;;;;;;;;;5020369;28;20028;-68
2023/10/20 08:39:54;;;;;;;11.10;2.00;;;;;;;;;;5012329;28;20033;-68
2023/10/20 08:42:24;;;;;;;13.32;2.00;;;;;;;;;;5020296;28;20148;-68
2023/10/20 08:44:50;;;;;;;12.55;2.25;;;;;;;;;;5022111;28;20033;-68
2023/10/20 08:47:19;;;;;;;10.00;1.80;;;;;;;;;;5021113;28;20017;-68
2023/10/20 08:49:48;;;;;;;10.65;2.00;;;;;;;;;;5019554;28;20275;-68
2023/10/20 08:52:15;;;;;;;11.75;1.75;;;;;;;;;;4999282;28;20479;-69
2023/10/20 08:54:41;;;;;;;9.07;1.67;;;;;;;;;;5023196;28;20076;-69
2023/10/20 08:57:08;;;;;;;8.48;1.77;;;;;;;;;;5024020;28;20420;-69
2023/10/20 08:59:37;;;;;;;15.15;2.00;;;;;;;;;;5019176;28;20079;-68
2023/10/20 09:02:04;;;;;;;11.55;1.80;;;;;;;;;;5022084;28;20033;-67
2023/10/20 09:04:31;;;;;;;11.52;2.25;;;;;;;;;;5018752;28;20395;-67
2023/10/20 09:06:59;;;;;;;9.63;2.00;;;;;;;;;;5025488;28;20408;-68
2023/10/20 09:09:25;;;;;;;15.40;2.33;;;;;;;;;;5002253;28;21363;-68
2023/10/20 09:11:51;;;;;;;18.83;2.60;;;;;;;;;;5006265;28;20609;-68
2023/10/20 09:14:18;;;;;;;10.98;2.17;;;;;;;;;;5001460;28;20036;-68
2023/10/20 09:16:44;;;;;;;9.90;2.00;;;;;;;;;;5005645;28;20048;-69
2023/10/20 09:19:11;;;;;;;10.65;1.67;;;;;;;;;;5021793;28;20048;-69
2023/10/20 09:21:39;;;;;;;9.05;1.90;;;;;;;;;;5022937;28;20033;-69
2023/10/20 09:24:09;;;;;;;9.55;2.17;;;;;;;;;;5022469;28;20049;-68
2023/10/20 09:26:36;;;;;;;11.60;2.38;;;;;;;;;;5017787;28;20021;-69
2023/10/20 09:29:05;;;;;;;9.77;1.80;;;;;;;;;;5010334;28;20396;-68
2023/10/20 09:31:31;;;;;;;11.45;2.00;;;;;;;;;;5001827;28;20127;-68
2023/10/20 09:33:58;;;;;;;8.82;2.20;;;;;;;;;;5022953;28;20416;-68
2023/10/20 09:36:24;;;;;;;10.40;2.17;;;;;;;;;;5003479;28;20333;-69
2023/10/20 09:38:50;;;;;;;9.68;1.60;;;;;;;;;;5025250;28;20047;-68
2023/10/20 09:41:17;;;;;;;11.20;2.10;;;;;;;;;;5002297;28;20689;-68
2023/10/20 09:43:53;;;;;;;8.20;2.25;;;;;;;;;;5010056;28;20407;-68
2023/10/20 09:46:20;;;;;;;9.18;2.10;;;;;;;;;;5016487;28;20036;-68
2023/10/20 09:48:47;;;;;;;11.55;2.20;;;;;;;;;;5024803;28;20020;-68
2023/10/20 09:51:15;;;;;;;13.88;1.90;;;;;;;;;;5001366;28;20336;-68
2023/10/20 09:53:42;;;;;;;9.82;1.92;;;;;;;;;;5022153;28;20865;-67
2023/10/20 09:56:08;;;;;;;10.50;2.10;;;;;;;;;;5022185;28;20247;-68
2023/10/20 09:58:36;;;;;;;9.95;2.10;;;;;;;;;;5004819;28;20031;-66
2023/10/20 10:01:03;;;;;;;10.82;2.33;;;;;;;;;;5021168;28;20032;-68
2023/10/20 10:03:42;;;;;;;10.82;1.95;;;;;;;;;;5003605;28;20043;-68
2023/10/20 10:06:15;;;;;;;14.55;2.20;;;;;;;;;;5021798;28;20064;-68
2023/10/20 10:08:43;;;;;;;9.75;1.83;;;;;;;;;;5018073;28;20477;-68
2023/10/20 10:11:26;;;;;;;8.60;2.00;;;;;;;;;;5005050;28;20636;-68
2023/10/20 10:13:54;;;;;;;14.45;2.20;;;;;;;;;;5020969;28;20039;-68
2023/10/20 10:16:21;;;;;;;13.48;1.90;;;;;;;;;;5019038;28;20114;-69
2023/10/20 10:18:48;;;;;;;9.35;1.80;;;;;;;;;;5007830;28;20036;-68
2023/10/20 10:21:24;;;;;;;13.10;1.90;;;;;;;;;;5018637;28;20512;-68
2023/10/20 10:24:09;;;;;;;13.07;2.97;;;;;;;;;;4998972;28;20512;-68
2023/10/20 10:26:44;;;;;;;12.27;1.98;;;;;;;;;;5020329;28;20478;-68
2023/10/20 10:29:10;;;;;;;9.98;1.77;;;;;;;;;;5028144;28;20491;-68
2023/10/20 10:31:36;;;;;;;10.60;2.17;;;;;;;;;;5023248;28;20028;-68
2023/10/20 10:34:04;;;;;;;11.60;2.05;;;;;;;;;;5021729;28;20056;-68
2023/10/20 10:36:31;;;;;;;9.85;1.90;;;;;;;;;;5000175;28;20730;-68
2023/10/20 10:38:57;;;;;;;10.73;2.20;;;;;;;;;;5024161;28;20546;-68
2023/10/20 10:41:24;;;;;;;9.63;2.00;;;;;;;;;;5019735;28;20066;-68
2023/10/20 10:43:54;;;;;;;9.95;2.03;;;;;;;;;;5021726;28;20052;-68
2023/10/20 10:46:20;;;;;;;11.45;1.95;;;;;;;;;;5001956;28;20031;-68
2023/10/20 10:48:47;;;;;;;12.75;2.30;;;;;;;;;;5025248;28;20048;-68
2023/10/20 10:51:13;;;;;;;8.85;1.92;;;;;;;;;;5017744;28;20036;-68
2023/10/20 10:53:40;;;;;;;10.90;1.98;;;;;;;;;;5026087;28;20033;-68
2023/10/20 10:56:07;;;;;;;10.15;1.90;;;;;;;;;;5021357;28;20549;-68
2023/10/20 10:58:33;;;;;;;10.65;2.33;;;;;;;;;;5017303;28;20132;-67
2023/10/20 11:00:59;;;;;;;11.52;1.92;;;;;;;;;;5021197;28;20486;-70
2023/10/20 11:03:25;;;;;;;11.38;2.42;;;;;;;;;;5019762;28;20066;-68
2023/10/20 11:05:52;;;;;;;11.25;1.90;;;;;;;;;;5020122;28;20064;-68
2023/10/20 11:08:19;;;;;;;10.88;2.10;;;;;;;;;;5019879;28;20036;-70
2023/10/20 11:10:45;;;;;;;11.35;2.22;;;;;;;;;;5022656;28;20033;-68
2023/10/20 11:13:16;;;;;;;10.75;2.33;;;;;;;;;;5002668;28;20112;-68
2023/10/20 11:15:42;;;;;;;8.10;1.75;;;;;;;;;;5024086;28;20137;-68
2023/10/20 11:18:10;;;;;;;8.70;1.80;;;;;;;;;;5008163;28;20498;-71
2023/10/20 11:20:38;;;;;;;9.55;2.05;;;;;;;;;;5020756;28;20407;-72
2023/10/20 11:23:07;;;;;;;9.15;1.77;;;;;;;;;;5023879;28;20071;-68
2023/10/20 11:25:33;;;;;;;8.60;1.55;;;;;;;;;;5018977;28;20202;-68
2023/10/20 11:28:02;;;;;;;10.65;2.10;;;;;;;;;;5020975;28;20146;-69
2023/10/20 11:30:34;;;;;;;8.95;1.65;;;;;;;;;;5016135;28;20584;-69
2023/10/20 11:33:01;;;;;;;9.52;2.03;;;;;;;;;;5016600;28;20037;-70
2023/10/20 11:35:27;;;;;;;10.77;1.70;;;;;;;;;;5019928;28;20042;-70
2023/10/20 11:37:54;;;;;;;13.48;2.30;;;;;;;;;;5016870;28;20397;-69
2023/10/20 11:40:24;;;;;;;9.80;1.80;;;;;;;;;;5015377;28;20415;-70
2023/10/20 11:42:50;;;;;;;10.35;2.20;;;;;;;;;;5018517;28;20033;-69
2023/10/20 11:45:17;;;;;;;9.68;1.95;;;;;;;;;;5020692;28;20416;-69
2023/10/20 11:47:43;;;;;;;7.72;1.80;;;;;;;;;;5024104;28;20068;-70
2023/10/20 11:50:10;;;;;;;8.70;2.10;;;;;;;;;;5024616;28;20068;-70
2023/10/20 11:52:39;;;;;;;9.45;2.00;;;;;;;;;;5020317;28;20337;-70
2023/10/20 11:55:06;;;;;;;9.13;2.05;;;;;;;;;;5022826;28;20060;-69
2023/10/20 11:57:32;;;;;;;12.10;2.20;;;;;;;;;;5021358;28;20029;-70
2023/10/20 11:59:59;;;;;;;11.13;2.00;;;;;;;;;;5023321;28;20039;-70
2023/10/20 12:02:25;;;;;;;9.75;1.85;;;;;;;;;;5021492;28;20041;-69
2023/10/20 12:04:51;;;;;;;9.45;2.15;;;;;;;;;;5025836;28;20091;-70
2023/10/20 12:07:18;;;;;;;10.18;2.30;;;;;;;;;;5018282;28;20049;-70
2023/10/20 12:09:45;;;;;;;12.02;2.65;;;;;;;;;;5023416;28;20108;-67
2023/10/20 12:12:12;;;;;;;11.85;2.60;;;;;;;;;;5024424;28;20034;-68
2023/10/20 12:14:38;;;;;;;11.70;2.70;;;;;;;;;;5020305;28;20040;-69
2023/10/20 12:17:04;;;;;;;13.55;2.88;;;;;;;;;;5020993;28;20036;-69
2023/10/20 12:19:30;;;;;;;9.55;2.05;;;;;;;;;;5021193;28;20855;-68
2023/10/20 12:21:56;;;;;;;12.82;2.55;;;;;;;;;;5020729;28;20509;-70
2023/10/20 12:24:23;;;;;;;12.57;2.70;;;;;;;;;;5019962;28;20053;-69
2023/10/20 12:26:49;;;;;;;10.70;2.17;;;;;;;;;;5000398;28;20224;-69
2023/10/20 12:29:19;;;;;;;15.30;2.63;;;;;;;;;;5019220;28;20029;-69
2023/10/20 12:31:45;;;;;;;12.25;2.65;;;;;;;;;;5022411;28;20029;-70
2023/10/20 12:34:11;;;;;;;9.77;2.30;;;;;;;;;;5007668;28;20033;-70
2023/10/20 12:36:39;;;;;;;10.27;2.33;;;;;;;;;;5023040;28;20076;-70
2023/10/20 12:39:06;;;;;;;10.60;2.50;;;;;;;;;;5021203;28;20025;-71
2023/10/20 12:41:33;;;;;;;10.73;2.17;;;;;;;;;;5021160;28;20514;-70
2023/10/20 12:43:59;;;;;;;10.50;2.58;;;;;;;;;;5021792;28;20091;-69
2023/10/20 12:46:25;;;;;;;12.10;2.55;;;;;;;;;;5000141;28;20025;-71
2023/10/20 12:48:51;;;;;;;11.98;2.45;;;;;;;;;;5008045;28;20132;-69
2023/10/20 12:51:17;;;;;;;12.35;2.60;;;;;;;;;;5013985;28;20036;-69
2023/10/20 12:53:43;;;;;;;14.05;3.42;;;;;;;;;;5020000;28;20458;-67
2023/10/20 12:56:10;;;;;;;13.10;2.58;;;;;;;;;;5020169;28;20435;-70
2023/10/20 12:58:36;;;;;;;16.25;3.10;;;;;;;;;;5016821;28;20030;-69
2023/10/20 13:01:02;;;;;;;11.10;2.47;;;;;;;;;;5020564;28;20593;-69
2023/10/20 13:03:29;;;;;;;12.80;2.50;;;;;;;;;;4998286;28;20418;-68
2023/10/20 13:05:55;;;;;;;11.60;2.67;;;;;;;;;;5022587;28;20047;-69
2023/10/20 13:08:22;;;;;;;13.07;2.90;;;;;;;;;;5017094;28;20127;-68
2023/10/20 13:10:49;;;;;;;13.15;2.70;;;;;;;;;;5021124;28;20103;-70
2023/10/20 13:13:17;;;;;;;11.70;2.67;;;;;;;;;;5017369;28;20024;-69
2023/10/20 13:15:46;;;;;;;15.85;3.00;;;;;;;;;;5021740;28;20041;-69
2023/10/20 13:18:13;;;;;;;14.10;3.03;;;;;;;;;;5017386;28;20313;-68
2023/10/20 13:20:43;;;;;;;13.85;3.00;;;;;;;;;;5020036;28;20347;-70
2023/10/20 13:23:09;;;;;;;14.00;2.83;;;;;;;;;;5002082;28;20026;-69
2023/10/20 13:25:35;;;;;;;12.20;2.78;;;;;;;;;;5015828;28;20327;-69
2023/10/20 13:28:04;;;;;;;14.98;2.90;;;;;;;;;;5019783;28;20686;-67
2023/10/20 13:30:30;;;;;;;13.43;2.90;;;;;;;;;;5013199;28;20115;-69
2023/10/20 13:32:56;;;;;;;13.55;3.17;;;;;;;;;;5019816;28;20513;-69
2023/10/20 13:35:22;;;;;;;11.32;2.53;;;;;;;;;;5018685;28;20056;-69
2023/10/20 13:37:49;;;;;;;11.55;2.75;;;;;;;;;;5023264;28;20044;-68
2023/10/20 13:40:15;;;;;;;14.23;3.20;;;;;;;;;;5016737;28;20600;-68
2023/10/20 13:42:41;;;;;;;16.27;3.35;;;;;;;;;;5020772;28;20383;-69
2023/10/20 13:45:08;;;;;;;15.18;2.88;;;;;;;;;;5019967;28;20047;-69
2023/10/20 13:47:34;;;;;;;12.52;2.72;;;;;;;;;;4997091;28;20029;-70
2023/10/20 13:50:04;;;;;;;11.82;2.90;;;;;;;;;;5019768;28;20091;-69
2023/10/20 13:52:30;;;;;;;13.65;2.40;;;;;;;;;;5016293;28;20050;-67
2023/10/20 13:54:56;;;;;;;12.05;3.10;;;;;;;;;;5005693;28;20025;-68
2023/10/20 13:57:23;;;;;;;15.32;3.53;;;;;;;;;;5014861;28;20261;-68
2023/10/20 13:59:49;;;;;;;15.70;3.45;;;;;;;;;;5018701;28;20039;-69
2023/10/20 14:02:17;;;;;;;11.00;2.80;;;;;;;;;;4996340;28;20554;-69
2023/10/20 14:04:43;;;;;;;11.13;3.03;;;;;;;;;;5022086;28;20028;-69
2023/10/20 14:07:09;;;;;;;10.82;3.03;;;;;;;;;;5019467;28;20257;-69
2023/10/20 14:09:35;;;;;;;13.65;2.83;;;;;;;;;;5020188;28;20029;-69
2023/10/20 14:12:02;;;;;;;11.75;2.50;;;;;;;;;;5022576;28;20280;-69
2023/10/20 14:14:28;;;;;;;11.88;2.67;;;;;;;;;;5013477;28;20036;-71
2023/10/20 14:16:54;;;;;;;13.35;3.38;;;;;;;;;;5002150;28;20057;-69
2023/10/20 14:19:21;;;;;;;11.90;3.10;;;;;;;;;;5017515;28;20337;-69
2023/10/20 14:21:48;;;;;;;12.93;3.08;;;;;;;;;;5021396;28;20028;-69
2023/10/20 14:24:14;;;;;;;11.30;2.67;;;;;;;;;;5016606;28;20210;-69
2023/10/20 14:26:40;;;;;;;12.20;3.03;;;;;;;;;;5020775;28;20027;-70
2023/10/20 14:29:06;;;;;;;12.05;2.88;;;;;;;;;;5020154;28;20128;-71
2023/10/20 14:31:32;;;;;;;14.15;3.00;;;;;;;;;;5018163;28;20047;-69
2023/10/20 14:33:59;;;;;;;11.80;2.67;;;;;;;;;;5019943;28;20467;-69
2023/10/20 14:36:25;;;;;;;12.63;2.72;;;;;;;;;;5017734;28;20361;-68
2023/10/20 14:38:51;;;;;;;15.55;2.95;;;;;;;;;;5019578;28;21426;-68
2023/10/20 14:41:17;;;;;;;11.95;2.60;;;;;;;;;;5018472;28;20530;-68
2023/10/20 14:43:43;;;;;;;12.73;2.90;;;;;;;;;;4999657;28;20044;-69
2023/10/20 14:46:09;;;;;;;12.77;3.28;;;;;;;;;;5020385;28;20320;-68
2023/10/20 14:48:36;;;;;;;12.52;2.72;;;;;;;;;;5002727;28;20828;-70
2023/10/20 14:51:07;;;;;;;11.15;2.58;;;;;;;;;;5002899;28;20021;-69
2023/10/20 14:53:34;;;;;;;13.05;2.88;;;;;;;;;;5016000;28;20029;-69
2023/10/20 14:56:02;;;;;;;11.43;2.72;;;;;;;;;;5020810;28;20129;-69
2023/10/20 14:58:30;;;;;;;13.43;2.53;;;;;;;;;;5018665;28;20671;-70
2023/10/20 15:00:56;;;;;;;10.07;2.50;;;;;;;;;;5019495;28;20291;-69
2023/10/20 15:03:23;;;;;;;13.65;3.10;;;;;;;;;;5013846;28;20056;-69
2023/10/20 15:05:49;;;;;;;15.63;2.97;;;;;;;;;;5017513;28;20049;-69
2023/10/20 15:08:15;;;;;;;13.35;2.58;;;;;;;;;;5016916;28;20028;-69
2023/10/20 15:10:42;;;;;;;14.13;2.50;;;;;;;;;;4995725;28;20033;-69
2023/10/20 15:13:08;;;;;;;11.25;2.47;;;;;;;;;;5020497;28;20029;-68